Time;durP1;ratioP1;P1;durP2;ratioP2;P2;SDS_P1;SDS_P2;PMS_P1;PMS_P2;Temp;Humidity;BMP_temperature;BMP_pressure;BME280_temperature;BME280_humidity;BME280_pressure;Samples;Min_cycle;Max_cycle;Signal;HPM_P1;HPM_P2
2023/04/10 03:03:28;;;;;;;3.80;1.33;;;4.50;91.70;;;;;;4867650;28;87825;-71
2023/04/10 03:05:54;;;;;;;4.53;1.50;;;4.40;91.70;;;;;;4871629;28;87937;-71
2023/04/10 03:08:20;;;;;;;4.47;1.40;;;4.40;91.60;;;;;;4873161;28;87426;-71
2023/04/10 03:10:49;;;;;;;3.90;1.27;;;4.40;91.70;;;;;;4883325;28;87174;-71
2023/04/10 03:13:15;;;;;;;4.30;1.10;;;4.40;91.00;;;;;;4880772;28;88299;-71
2023/04/10 03:15:41;;;;;;;3.55;0.93;;;4.40;91.10;;;;;;4889231;28;87680;-71
2023/04/10 03:18:08;;;;;;;4.30;1.50;;;4.40;91.30;;;;;;4883528;28;87408;-71
2023/04/10 03:20:37;;;;;;;2.85;0.82;;;4.40;91.30;;;;;;4889843;28;87897;-71
2023/04/10 03:23:06;;;;;;;3.55;1.40;;;4.30;91.40;;;;;;4878233;28;89734;-71
2023/04/10 03:25:35;;;;;;;3.20;1.15;;;4.30;91.30;;;;;;4892794;28;88847;-71
2023/04/10 03:28:01;;;;;;;3.30;1.23;;;4.30;91.10;;;;;;4899588;28;87453;-72
2023/04/10 03:30:26;;;;;;;4.05;1.30;;;4.30;91.60;;;;;;4882530;28;87616;-70
2023/04/10 03:32:52;;;;;;;3.78;1.08;;;4.30;91.70;;;;;;4888933;28;88704;-70
2023/04/10 03:35:18;;;;;;;3.35;1.20;;;4.30;91.70;;;;;;4898550;28;87848;-69
2023/04/10 03:37:44;;;;;;;4.70;1.08;;;4.20;91.70;;;;;;4881387;28;87362;-69
2023/04/10 03:40:10;;;;;;;4.15;1.30;;;4.20;91.70;;;;;;4874659;28;86291;-71
2023/04/10 03:42:36;;;;;;;2.83;0.82;;;4.20;91.60;;;;;;4884095;28;87850;-69
2023/04/10 03:45:03;;;;;;;3.40;0.80;;;4.20;91.80;;;;;;4896001;28;87418;-71
2023/04/10 03:47:30;;;;;;;2.33;0.70;;;4.20;91.60;;;;;;4889360;28;88416;-73
2023/04/10 03:49:57;;;;;;;3.30;0.90;;;4.10;91.50;;;;;;4897710;28;87319;-72
2023/04/10 03:52:23;;;;;;;3.13;1.10;;;4.10;91.80;;;;;;4898718;28;88242;-73
2023/04/10 03:54:49;;;;;;;2.88;0.90;;;4.00;92.00;;;;;;4896246;28;88289;-71
2023/04/10 03:57:17;;;;;;;3.00;1.02;;;4.00;91.90;;;;;;4889946;28;88293;-71
2023/04/10 03:59:43;;;;;;;2.65;0.80;;;4.00;91.60;;;;;;4882045;28;87913;-71
2023/04/10 04:02:09;;;;;;;3.05;1.00;;;4.00;91.40;;;;;;4875973;28;88227;-70
2023/04/10 04:04:35;;;;;;;2.55;0.90;;;4.00;91.20;;;;;;4887830;28;87668;-72
2023/04/10 04:07:01;;;;;;;4.13;1.35;;;4.00;91.20;;;;;;4883941;28;87276;-72
2023/04/10 04:09:26;;;;;;;2.67;0.80;;;3.90;91.20;;;;;;4894306;28;87508;-72
2023/04/10 04:11:52;;;;;;;2.83;1.00;;;3.90;91.40;;;;;;4883684;28;89102;-72
2023/04/10 04:14:18;;;;;;;3.10;1.10;;;3.90;91.60;;;;;;4886164;28;89017;-72
2023/04/10 04:16:44;;;;;;;4.40;1.05;;;3.90;92.00;;;;;;4880715;28;87675;-72
2023/04/10 04:19:09;;;;;;;1.80;0.50;;;3.90;91.80;;;;;;4881824;28;87527;-71
2023/04/10 04:21:35;;;;;;;3.22;1.00;;;3.90;91.70;;;;;;4878389;28;88746;-73
2023/04/10 04:24:00;;;;;;;2.90;0.88;;;3.90;91.70;;;;;;4882655;28;88590;-72
2023/04/10 04:26:26;;;;;;;2.90;0.75;;;3.90;91.80;;;;;;4881835;28;87022;-72
2023/04/10 04:28:52;;;;;;;3.58;0.70;;;3.90;91.80;;;;;;4881380;28;86487;-72
2023/04/10 04:31:17;;;;;;;3.20;0.50;;;3.90;91.70;;;;;;4874140;28;87616;-72
2023/04/10 04:33:43;;;;;;;3.10;0.80;;;3.80;91.70;;;;;;4880257;28;87273;-72
2023/04/10 04:36:09;;;;;;;2.30;0.57;;;3.90;91.70;;;;;;4880226;28;88484;-72
2023/04/10 04:38:34;;;;;;;2.78;0.65;;;3.90;91.10;;;;;;4881083;28;87714;-72
2023/04/10 04:41:00;;;;;;;3.03;1.33;;;3.90;91.00;;;;;;4880724;28;87627;-72
2023/04/10 04:43:26;;;;;;;3.30;1.20;;;3.90;91.60;;;;;;4879721;28;87892;-72
2023/04/10 04:45:51;;;;;;;3.33;1.23;;;3.90;92.60;;;;;;4893924;28;88558;-71
2023/04/10 04:48:17;;;;;;;4.13;1.40;;;3.90;92.70;;;;;;4874908;28;87833;-71
2023/04/10 04:50:43;;;;;;;4.03;1.40;;;3.90;92.90;;;;;;4880703;28;88071;-70
2023/04/10 04:53:09;;;;;;;3.22;1.30;;;3.90;92.90;;;;;;4882926;28;87274;-71
2023/04/10 04:55:35;;;;;;;4.78;1.30;;;4.00;92.60;;;;;;4884812;28;87401;-71
2023/04/10 04:58:00;;;;;;;4.53;1.45;;;4.10;92.60;;;;;;4870951;28;87485;-72
2023/04/10 05:00:26;;;;;;;3.45;1.27;;;4.10;92.60;;;;;;4878655;28;88647;-73
2023/04/10 05:02:51;;;;;;;4.35;1.33;;;4.40;92.40;;;;;;4882820;28;89403;-73
2023/04/10 05:05:17;;;;;;;2.92;1.10;;;5.00;91.30;;;;;;4880677;28;87560;-73
2023/04/10 05:07:43;;;;;;;3.00;1.10;;;5.80;89.00;;;;;;4885212;28;87484;-74
2023/04/10 05:10:09;;;;;;;4.63;1.10;;;6.50;85.20;;;;;;4898082;28;88385;-74
2023/04/10 05:12:35;;;;;;;3.45;1.33;;;7.10;80.90;;;;;;4900271;28;87975;-72
2023/04/10 05:15:00;;;;;;;5.72;1.30;;;7.70;78.90;;;;;;4891698;28;87297;-73
2023/04/10 05:17:26;;;;;;;2.78;1.20;;;8.50;75.60;;;;;;4875139;28;86718;-74
2023/04/10 05:19:52;;;;;;;3.67;0.90;;;9.20;72.10;;;;;;4883002;28;87437;-72
2023/04/10 05:22:17;;;;;;;2.70;1.20;;;10.00;69.10;;;;;;4881884;28;88875;-74
2023/04/10 05:24:43;;;;;;;3.55;1.02;;;10.50;67.30;;;;;;4881400;28;88337;-75
2023/04/10 05:27:09;;;;;;;2.78;0.98;;;11.20;64.60;;;;;;4891683;28;87413;-69
2023/04/10 05:29:34;;;;;;;2.72;0.90;;;11.70;62.50;;;;;;4879166;28;87561;-71
2023/04/10 05:32:00;;;;;;;2.67;1.13;;;11.70;61.50;;;;;;4875706;28;87917;-73
2023/04/10 05:34:26;;;;;;;2.50;0.73;;;12.00;60.40;;;;;;4859773;28;87307;-71
2023/04/10 05:36:52;;;;;;;2.38;0.90;;;12.40;58.60;;;;;;4878941;28;87448;-72
2023/04/10 05:39:17;;;;;;;2.95;0.73;;;12.50;58.10;;;;;;4876541;28;88980;-71
2023/04/10 05:41:43;;;;;;;4.20;0.77;;;12.60;58.10;;;;;;4869191;28;88044;-70
2023/04/10 05:44:09;;;;;;;2.55;0.88;;;13.00;57.30;;;;;;4869841;28;88602;-70
2023/04/10 05:46:34;;;;;;;3.75;1.23;;;13.20;56.10;;;;;;4872806;28;89442;-73
2023/04/10 05:49:00;;;;;;;1.95;0.63;;;13.00;55.90;;;;;;4872288;28;88714;-72
2023/04/10 05:51:26;;;;;;;1.95;0.80;;;12.80;56.50;;;;;;4866523;28;88641;-72
2023/04/10 05:53:51;;;;;;;2.35;0.60;;;12.80;56.60;;;;;;4868193;28;87566;-72
2023/04/10 05:56:17;;;;;;;2.03;0.70;;;12.80;56.20;;;;;;4876121;28;89188;-70
2023/04/10 05:58:43;;;;;;;1.95;0.47;;;13.10;55.60;;;;;;4875451;28;88643;-70
2023/04/10 06:01:10;;;;;;;2.22;0.60;;;13.50;55.00;;;;;;4877522;28;89039;-70
2023/04/10 06:03:35;;;;;;;2.38;0.50;;;14.20;53.00;;;;;;4886701;28;87392;-70
2023/04/10 06:06:02;;;;;;;1.98;0.47;;;14.80;52.00;;;;;;4880661;28;86679;-70
2023/04/10 06:08:28;;;;;;;1.80;0.75;;;15.20;50.40;;;;;;4881710;28;87202;-70
2023/04/10 06:10:53;;;;;;;2.50;0.63;;;15.10;50.70;;;;;;4866854;28;88059;-70
2023/04/10 06:13:19;;;;;;;2.75;0.88;;;15.40;50.50;;;;;;4873013;28;88562;-70
2023/04/10 06:15:45;;;;;;;3.38;0.63;;;15.70;49.10;;;;;;4882333;28;87364;-73
2023/04/10 06:18:10;;;;;;;2.17;0.95;;;15.90;49.70;;;;;;4875073;28;89356;-71
2023/04/10 06:20:36;;;;;;;1.75;0.73;;;16.40;49.10;;;;;;4866462;28;88140;-72
2023/04/10 06:23:02;;;;;;;1.60;0.63;;;16.50;47.40;;;;;;4874413;28;88893;-71
2023/04/10 06:25:27;;;;;;;1.88;0.73;;;17.00;47.40;;;;;;4881834;28;90189;-71
2023/04/10 06:27:53;;;;;;;1.70;0.88;;;17.60;45.60;;;;;;4882127;28;87747;-72
2023/04/10 06:30:19;;;;;;;2.92;0.70;;;18.00;45.50;;;;;;4877449;28;86908;-72
2023/04/10 06:32:45;;;;;;;2.50;0.75;;;18.30;45.50;;;;;;4880233;28;87385;-71
2023/04/10 06:35:11;;;;;;;2.10;0.82;;;18.60;45.40;;;;;;4880185;28;87524;-72
2023/04/10 06:37:36;;;;;;;2.90;1.15;;;19.30;43.80;;;;;;4890976;28;89444;-72
2023/04/10 06:40:10;;;;;;;1.70;1.00;;;19.70;43.10;;;;;;4880520;28;89703;-72
2023/04/10 06:42:36;;;;;;;1.55;0.80;;;19.80;41.90;;;;;;4877827;28;87889;-71
2023/04/10 06:45:03;;;;;;;2.15;1.08;;;19.70;41.10;;;;;;4880755;28;87801;-71
2023/04/10 06:47:30;;;;;;;3.08;0.90;;;19.50;41.70;;;;;;4890692;28;87725;-72
2023/04/10 06:49:56;;;;;;;1.77;0.80;;;19.70;41.30;;;;;;4882485;28;87764;-72
2023/04/10 06:52:21;;;;;;;1.85;0.55;;;19.80;41.10;;;;;;4878649;28;87449;-72
2023/04/10 06:54:47;;;;;;;1.65;0.75;;;20.10;41.70;;;;;;4881069;28;86804;-71
2023/04/10 06:57:13;;;;;;;2.22;1.38;;;20.90;40.20;;;;;;4863724;28;88951;-73
2023/04/10 06:59:39;;;;;;;1.80;0.95;;;21.60;38.70;;;;;;4881973;28;88274;-71
2023/04/10 07:02:04;;;;;;;2.25;1.00;;;21.90;38.70;;;;;;4879365;28;88413;-72
2023/04/10 07:04:30;;;;;;;2.10;0.70;;;22.20;37.80;;;;;;4869972;28;87307;-72
2023/04/10 07:06:56;;;;;;;2.50;1.35;;;22.50;38.70;;;;;;4874425;28;87636;-72
2023/04/10 07:09:25;;;;;;;3.00;2.25;;;23.10;37.40;;;;;;4883966;28;87489;-72
2023/04/10 07:11:51;;;;;;;3.38;2.55;;;23.80;39.50;;;;;;4882022;28;88673;-72
2023/04/10 07:14:17;;;;;;;4.55;3.40;;;25.00;39.10;;;;;;4882258;28;88127;-72
2023/04/10 07:16:43;;;;;;;3.40;2.35;;;25.70;37.70;;;;;;4879159;28;87481;-72
2023/04/10 07:19:08;;;;;;;3.38;2.72;;;26.30;35.50;;;;;;4886414;28;87160;-72
2023/04/10 07:21:34;;;;;;;3.42;2.35;;;26.60;35.90;;;;;;4881627;28;89245;-73
2023/04/10 07:24:00;;;;;;;4.65;2.65;;;26.20;37.30;;;;;;4882816;28;87294;-73
2023/04/10 07:26:25;;;;;;;5.78;2.95;;;25.90;37.40;;;;;;4887978;28;88875;-72
2023/04/10 07:28:51;;;;;;;3.55;2.53;;;25.70;38.30;;;;;;4880855;28;88852;-72
2023/04/10 07:31:17;;;;;;;4.20;2.83;;;25.80;37.30;;;;;;4875440;28;87369;-72
2023/04/10 07:33:44;;;;;;;3.85;2.60;;;26.00;37.40;;;;;;4879232;28;88173;-72
2023/04/10 07:36:10;;;;;;;3.85;2.95;;;26.00;36.60;;;;;;4878588;28;87791;-73
2023/04/10 07:38:36;;;;;;;4.38;2.97;;;25.40;37.60;;;;;;4880261;28;87524;-73
2023/04/10 07:41:02;;;;;;;4.53;3.15;;;25.20;38.20;;;;;;4877088;28;87591;-72
2023/04/10 07:43:28;;;;;;;3.85;2.90;;;26.10;36.20;;;;;;4871142;28;86881;-75
2023/04/10 07:45:55;;;;;;;5.43;4.18;;;27.00;36.30;;;;;;4871155;28;87900;-76
2023/04/10 07:48:20;;;;;;;5.07;4.00;;;28.00;35.60;;;;;;4863662;28;89707;-73
2023/04/10 07:50:46;;;;;;;4.82;3.67;;;28.70;35.40;;;;;;4868813;28;89990;-73
2023/04/10 07:53:12;;;;;;;5.20;4.65;;;28.70;34.50;;;;;;4879440;28;89718;-73
2023/04/10 07:55:38;;;;;;;6.00;4.40;;;29.10;33.40;;;;;;4871532;28;87649;-73
2023/04/10 07:58:05;;;;;;;6.85;5.28;;;29.50;33.20;;;;;;4875596;28;88316;-73
2023/04/10 08:00:31;;;;;;;4.35;3.55;;;30.50;34.10;;;;;;4876121;28;89601;-73
2023/04/10 08:02:57;;;;;;;5.90;4.28;;;31.70;32.50;;;;;;4879035;28;87508;-73
2023/04/10 08:05:22;;;;;;;5.32;4.07;;;32.00;32.30;;;;;;4880224;28;88869;-73
2023/04/10 08:07:48;;;;;;;6.18;4.35;;;32.50;31.40;;;;;;4876017;28;87831;-73
2023/04/10 08:10:14;;;;;;;4.85;4.20;;;33.00;31.30;;;;;;4882910;28;87111;-73
2023/04/10 08:12:40;;;;;;;5.07;4.40;;;33.20;30.40;;;;;;4870890;28;88909;-74
2023/04/10 08:15:06;;;;;;;5.57;4.00;;;33.80;30.20;;;;;;4884577;28;89598;-76
2023/04/10 08:17:32;;;;;;;4.72;4.22;;;34.80;29.60;;;;;;4871027;28;88458;-71
2023/04/10 08:19:57;;;;;;;5.55;5.05;;;35.40;29.10;;;;;;4877437;28;87573;-75
2023/04/10 08:22:23;;;;;;;5.85;4.05;;;35.70;29.10;;;;;;4875198;28;87821;-73
2023/04/10 08:24:52;;;;;;;5.18;4.65;;;36.20;29.30;;;;;;4875048;28;88647;-73
2023/04/10 08:27:18;;;;;;;4.40;3.83;;;36.30;29.20;;;;;;4875546;28;87943;-74
2023/04/10 08:29:43;;;;;;;4.97;4.47;;;36.90;28.20;;;;;;4874003;28;87572;-73
2023/04/10 08:32:09;;;;;;;5.70;4.85;;;37.10;28.20;;;;;;4876257;28;86848;-73
2023/04/10 08:34:35;;;;;;;5.57;4.45;;;37.30;27.80;;;;;;4875274;28;87560;-74
2023/04/10 08:37:05;;;;;;;5.53;5.03;;;37.20;27.40;;;;;;4872594;28;87788;-72
2023/04/10 08:39:30;;;;;;;4.68;4.18;;;37.30;27.70;;;;;;4873015;28;88411;-73
2023/04/10 08:41:56;;;;;;;5.22;4.72;;;37.70;28.10;;;;;;4885925;28;87411;-73
2023/04/10 08:44:22;;;;;;;4.05;3.63;;;38.00;28.10;;;;;;4871640;28;88439;-72
2023/04/10 08:46:48;;;;;;;4.60;4.07;;;38.20;28.00;;;;;;4875894;28;87242;-74
2023/04/10 08:49:28;;;;;;;5.70;5.20;;;38.30;27.60;;;;;;4874376;28;87781;-75
2023/04/10 08:51:56;;;;;;;5.30;4.47;;;38.10;28.30;;;;;;4874799;28;87847;-73
2023/04/10 08:54:28;;;;;;;5.00;4.60;;;38.10;27.60;;;;;;4871836;28;87616;-74
2023/04/10 08:56:55;;;;;;;4.32;3.58;;;38.80;26.70;;;;;;4872400;28;87410;-74
2023/04/10 08:59:22;;;;;;;4.63;4.10;;;38.80;26.60;;;;;;4872417;28;87559;-73
2023/04/10 09:01:47;;;;;;;4.00;3.17;;;38.70;27.00;;;;;;4871500;28;87505;-72
2023/04/10 09:04:13;;;;;;;5.00;4.10;;;39.10;26.20;;;;;;4870343;28;89727;-74
2023/04/10 09:06:39;;;;;;;5.38;4.72;;;39.40;26.70;;;;;;4872027;28;88601;-74
2023/04/10 09:09:05;;;;;;;4.30;3.90;;;39.20;27.40;;;;;;4873905;28;87783;-74
2023/04/10 09:11:59;;;;;;;6.55;4.22;;;39.30;27.30;;;;;;4874832;28;87250;-75
2023/04/10 09:14:31;;;;;;;4.32;3.92;;;39.30;26.70;;;;;;4871787;28;87966;-75
2023/04/10 09:17:29;;;;;;;5.28;4.78;;;38.90;26.60;;;;;;4873014;28;88012;-76
2023/04/10 09:19:55;;;;;;;4.03;3.63;;;39.10;27.30;;;;;;4821279;28;89670;-76
2023/04/10 09:22:32;;;;;;;4.00;3.58;;;38.50;27.40;;;;;;4874491;28;87077;-75
2023/04/10 09:24:59;;;;;;;4.32;3.47;;;38.40;26.80;;;;;;4872661;28;88362;-75
2023/04/10 09:27:36;;;;;;;4.28;3.03;;;37.60;27.20;;;;;;4869640;28;87734;-75
2023/04/10 09:30:02;;;;;;;5.50;4.25;;;36.70;27.60;;;;;;4877250;28;88215;-74
2023/04/10 09:32:35;;;;;;;4.57;3.90;;;36.20;28.10;;;;;;4875375;28;87361;-75
2023/04/10 09:35:01;;;;;;;5.32;4.78;;;35.60;28.60;;;;;;4872016;28;88124;-74
2023/04/10 09:37:34;;;;;;;5.10;4.43;;;35.60;29.00;;;;;;4868402;28;89101;-74
2023/04/10 09:40:00;;;;;;;5.32;4.00;;;35.80;29.40;;;;;;4879659;28;88084;-75
2023/04/10 09:42:35;;;;;;;5.68;5.15;;;36.60;29.70;;;;;;4869132;28;87312;-75
2023/04/10 09:45:01;;;;;;;4.90;4.07;;;37.10;28.80;;;;;;4877396;28;87847;-73
2023/04/10 09:47:28;;;;;;;4.93;4.28;;;36.40;28.80;;;;;;4871290;28;87370;-75
2023/04/10 09:49:59;;;;;;;6.20;4.82;;;36.10;29.00;;;;;;4882283;28;87527;-73
2023/04/10 09:52:28;;;;;;;6.68;4.20;;;35.50;29.10;;;;;;4877677;28;87389;-73
2023/04/10 09:54:56;;;;;;;4.35;3.95;;;35.40;28.90;;;;;;4874517;28;88976;-74
2023/04/10 09:57:24;;;;;;;5.53;4.38;;;35.40;29.10;;;;;;4878122;28;88251;-76
2023/04/10 09:59:54;;;;;;;5.22;4.10;;;35.40;28.60;;;;;;4875443;28;89603;-75
2023/04/10 10:02:22;;;;;;;4.75;4.25;;;34.80;29.10;;;;;;4872380;28;87275;-72
2023/04/10 10:04:49;;;;;;;6.90;4.93;;;33.20;29.90;;;;;;4879647;28;88651;-73
2023/04/10 10:07:16;;;;;;;5.45;4.05;;;32.80;30.30;;;;;;4884287;28;87561;-73
2023/04/10 10:09:43;;;;;;;5.78;4.70;;;32.80;30.20;;;;;;4885010;28;88909;-73
2023/04/10 10:12:11;;;;;;;5.78;3.88;;;33.30;29.90;;;;;;4886097;28;87737;-73
2023/04/10 10:14:59;;;;;;;4.80;4.15;;;33.20;29.80;;;;;;4884347;28;87300;-72
2023/04/10 10:17:28;;;;;;;;;;;32.50;31.20;;;;;;4885263;28;87465;-72
2023/04/10 10:20:16;;;;;;;4.70;4.10;;;31.50;31.10;;;;;;4882678;28;88249;-71
2023/04/10 10:22:43;;;;;;;6.82;4.20;;;29.60;33.00;;;;;;4876107;28;89639;-72
2023/04/10 10:25:09;;;;;;;5.40;3.83;;;28.20;36.10;;;;;;4878194;28;87600;-71
2023/04/10 10:27:37;;;;;;;5.88;3.85;;;27.00;37.20;;;;;;4878551;28;88087;-73
2023/04/10 10:30:06;;;;;;;5.00;3.60;;;25.80;38.50;;;;;;4877603;28;87412;-71
2023/04/10 10:32:34;;;;;;;5.20;3.72;;;24.90;39.80;;;;;;4883805;28;87428;-73
2023/04/10 10:35:01;;;;;;;5.97;3.60;;;23.90;39.00;;;;;;4875927;28;88137;-72
2023/04/10 10:37:29;;;;;;;7.53;3.67;;;22.90;41.60;;;;;;4875657;28;87500;-71
2023/04/10 10:40:11;;;;;;;4.55;3.03;;;22.30;44.90;;;;;;4878513;28;87416;-71
2023/04/10 10:42:44;;;;;;;7.20;3.33;;;21.40;45.00;;;;;;4890259;28;87588;-72
2023/04/10 10:45:20;;;;;;;6.55;3.05;;;21.30;45.00;;;;;;4880315;28;89889;-71
2023/04/10 10:47:55;;;;;;;4.50;3.03;;;20.90;44.70;;;;;;4882762;28;88250;-71
2023/04/10 10:50:24;;;;;;;4.25;2.80;;;20.70;43.90;;;;;;4879667;28;87590;-72
2023/04/10 10:52:56;;;;;;;4.82;2.92;;;20.30;44.70;;;;;;4874913;28;87580;-74
2023/04/10 10:55:22;;;;;;;6.38;3.38;;;20.00;44.40;;;;;;4870833;28;89217;-71
2023/04/10 10:57:51;;;;;;;4.07;2.47;;;19.60;45.80;;;;;;4875173;28;89672;-74
2023/04/10 11:00:17;;;;;;;4.35;2.15;;;19.50;45.60;;;;;;4867786;28;88762;-71
2023/04/10 11:02:43;;;;;;;4.35;2.33;;;19.40;43.90;;;;;;4873170;28;88256;-71
2023/04/10 11:05:09;;;;;;;4.00;2.30;;;19.40;45.60;;;;;;4876524;28;88058;-73
2023/04/10 11:07:56;;;;;;;4.22;2.28;;;19.50;47.70;;;;;;4874886;28;89356;-72
2023/04/10 11:11:04;;;;;;;5.28;1.98;;;19.70;47.70;;;;;;4880361;28;88068;-71
2023/04/10 11:13:30;;;;;;;3.13;1.50;;;19.60;44.40;;;;;;4868497;28;87608;-71
2023/04/10 11:15:57;;;;;;;5.40;1.83;;;19.60;44.00;;;;;;4890194;28;87794;-71
2023/04/10 11:18:47;;;;;;;3.92;1.80;;;19.80;46.10;;;;;;4892876;28;87986;-71
2023/04/10 11:21:17;;;;;;;3.03;1.52;;;19.80;43.70;;;;;;4879455;28;87479;-74
2023/04/10 11:24:04;;;;;;;2.90;1.63;;;19.90;44.40;;;;;;4879318;28;87577;-72
2023/04/10 11:26:41;;;;;;;3.28;1.73;;;19.90;45.50;;;;;;4863007;28;90032;-71
2023/04/10 11:29:18;;;;;;;2.10;1.15;;;20.10;44.60;;;;;;4877770;28;88080;-73
2023/04/10 11:31:45;;;;;;;3.67;1.25;;;20.20;44.70;;;;;;4868236;28;88552;-71
2023/04/10 11:34:11;;;;;;;3.00;1.63;;;20.20;42.50;;;;;;4878160;28;87674;-71
2023/04/10 11:36:42;;;;;;;2.65;1.27;;;20.20;44.20;;;;;;4878264;28;89028;-71
2023/04/10 11:39:09;;;;;;;3.50;1.30;;;20.40;46.60;;;;;;4882810;28;89040;-72
2023/04/10 11:41:42;;;;;;;6.38;1.50;;;20.50;49.20;;;;;;4878722;28;88032;-72
2023/04/10 11:44:13;;;;;;;2.58;1.35;;;20.50;43.30;;;;;;4870051;28;88109;-71
2023/04/10 11:46:46;;;;;;;2.88;1.77;;;20.70;43.00;;;;;;4865874;28;89095;-71
2023/04/10 11:49:16;;;;;;;7.35;1.70;;;20.60;42.30;;;;;;4868255;28;89055;-71
2023/04/10 11:51:46;;;;;;;3.65;1.25;;;20.50;45.40;;;;;;4877852;28;87220;-71
2023/04/10 11:54:21;;;;;;;;;;;20.50;42.10;;;;;;4884132;28;86808;-71
2023/04/10 11:56:57;;;;;;;4.50;1.23;;;20.60;44.10;;;;;;4873875;28;87765;-71
2023/04/10 11:59:23;;;;;;;4.70;1.60;;;20.70;46.20;;;;;;4875228;28;87826;-72
2023/04/10 12:01:52;;;;;;;3.00;1.10;;;20.70;43.70;;;;;;4877280;28;88327;-71
2023/04/10 12:04:22;;;;;;;;;;;20.70;41.10;;;;;;4872188;28;87612;-71
2023/04/10 12:06:55;;;;;;;4.43;1.10;;;20.50;44.10;;;;;;4874826;28;88022;-71
2023/04/10 12:09:21;;;;;;;3.85;0.82;;;20.50;42.20;;;;;;4872293;28;87444;-74
2023/04/10 12:11:58;;;;;;;3.72;0.93;;;20.50;40.50;;;;;;4888218;28;87047;-73
2023/04/10 12:14:37;;;;;;;2.63;1.10;;;20.50;41.50;;;;;;4881702;28;87472;-71
2023/04/10 12:17:04;;;;;;;3.35;0.85;;;20.60;43.90;;;;;;4882026;28;87758;-71
2023/04/10 12:19:31;;;;;;;2.15;0.80;;;21.10;41.70;;;;;;4880069;28;88500;-71
2023/04/10 12:21:59;;;;;;;4.07;0.80;;;21.10;38.80;;;;;;4880633;28;87666;-72
2023/04/10 12:24:45;;;;;;;2.20;0.57;;;21.20;39.00;;;;;;4885441;28;87533;-72
2023/04/10 12:27:16;;;;;;;1.40;0.40;;;21.20;39.80;;;;;;4880540;28;89856;-72
2023/04/10 12:29:43;;;;;;;2.08;0.55;;;21.10;39.10;;;;;;4882488;28;89384;-72
2023/04/10 12:32:09;;;;;;;2.25;0.68;;;21.10;41.50;;;;;;4879210;28;88065;-71
2023/04/10 12:34:39;;;;;;;4.05;0.28;;;20.90;38.90;;;;;;4881319;28;87394;-72
2023/04/10 12:37:05;;;;;;;0.88;0.30;;;20.80;37.00;;;;;;4890950;28;88954;-72
2023/04/10 12:39:31;;;;;;;3.78;0.35;;;20.80;37.20;;;;;;4881088;28;87285;-72
2023/04/10 12:42:16;;;;;;;1.75;0.40;;;20.70;37.60;;;;;;4881690;28;87255;-71
2023/04/10 12:44:53;;;;;;;1.80;0.35;;;20.60;36.00;;;;;;4880568;28;86575;-71
2023/04/10 12:47:19;;;;;;;1.80;0.43;;;20.50;36.70;;;;;;4887079;28;87681;-70
2023/04/10 12:50:04;;;;;;;2.28;0.38;;;20.50;37.80;;;;;;4879402;28;88433;-72
2023/04/10 12:52:30;;;;;;;1.45;0.30;;;20.50;35.60;;;;;;4885475;28;89257;-73
2023/04/10 12:55:15;;;;;;;1.10;0.20;;;20.50;33.50;;;;;;4881627;28;87342;-72
2023/04/10 12:57:45;;;;;;;2.15;0.45;;;20.30;35.80;;;;;;4869528;28;88616;-72
2023/04/10 13:00:13;;;;;;;1.55;0.30;;;20.20;37.20;;;;;;4871361;28;89110;-72
2023/04/10 13:02:39;;;;;;;0.60;0.15;;;20.20;35.40;;;;;;4871808;28;88606;-72
2023/04/10 13:05:06;;;;;;;1.20;0.28;;;20.20;36.60;;;;;;4884237;28;89175;-71
2023/04/10 13:07:32;;;;;;;0.30;0.10;;;20.30;36.10;;;;;;4866977;28;88945;-71
2023/04/10 13:09:58;;;;;;;1.55;0.20;;;20.20;33.10;;;;;;4873719;28;88455;-72
2023/04/10 13:12:25;;;;;;;0.90;0.20;;;20.20;39.70;;;;;;4879938;28;87178;-71
2023/04/10 13:14:52;;;;;;;0.88;0.20;;;20.30;37.70;;;;;;4887208;28;87626;-72
2023/04/10 13:17:23;;;;;;;1.88;0.15;;;20.30;31.80;;;;;;4872814;28;88558;-72
2023/04/10 13:19:49;;;;;;;0.60;0.20;;;20.20;34.10;;;;;;4877865;28;88450;-71
2023/04/10 13:22:14;;;;;;;1.05;0.10;;;20.20;33.80;;;;;;4869251;28;87613;-70
2023/04/10 13:24:40;;;;;;;1.90;0.30;;;20.20;33.80;;;;;;4875684;28;88786;-71
2023/04/10 13:27:08;;;;;;;0.95;0.22;;;20.10;34.50;;;;;;4879311;28;88223;-71
2023/04/10 13:29:39;;;;;;;1.35;0.22;;;20.00;34.80;;;;;;4877048;28;87893;-69
2023/04/10 13:32:04;;;;;;;2.20;0.20;;;20.10;37.60;;;;;;4879581;28;87507;-71
2023/04/10 13:34:31;;;;;;;1.55;0.20;;;20.10;37.20;;;;;;4878463;28;86824;-70
2023/04/10 13:36:57;;;;;;;0.77;0.20;;;20.20;36.60;;;;;;4878638;28;88173;-71
2023/04/10 13:39:23;;;;;;;0.80;0.20;;;20.10;37.60;;;;;;4877470;28;88738;-70
2023/04/10 13:41:48;;;;;;;0.73;0.28;;;20.10;35.50;;;;;;4879497;28;88344;-70
2023/04/10 13:44:14;;;;;;;0.70;0.22;;;20.10;34.10;;;;;;4869154;28;88226;-70
2023/04/10 13:46:40;;;;;;;0.70;0.10;;;20.10;35.60;;;;;;4875664;28;88106;-70
2023/04/10 13:49:05;;;;;;;2.10;0.20;;;20.20;35.70;;;;;;4875461;28;87295;-69
2023/04/10 13:51:31;;;;;;;0.50;0.10;;;20.20;33.30;;;;;;4879423;28;87264;-69
2023/04/10 13:53:57;;;;;;;0.65;0.10;;;20.30;34.20;;;;;;4872394;28;87369;-71
2023/04/10 13:56:23;;;;;;;1.02;0.30;;;20.10;34.10;;;;;;4877103;28;88428;-72
2023/04/10 13:58:49;;;;;;;0.52;0.30;;;20.10;33.40;;;;;;4882918;28;88321;-71
2023/04/10 14:01:14;;;;;;;2.55;0.28;;;20.10;34.20;;;;;;4877987;28;87444;-70
2023/04/10 14:03:40;;;;;;;0.70;0.15;;;20.00;33.90;;;;;;4870167;28;87508;-70
2023/04/10 14:06:06;;;;;;;0.50;0.20;;;20.00;33.20;;;;;;4866761;28;90035;-70
2023/04/10 14:08:32;;;;;;;0.52;0.22;;;20.00;36.10;;;;;;4848794;28;89843;-70
2023/04/10 14:10:57;;;;;;;0.30;0.08;;;19.90;34.10;;;;;;4868063;28;87081;-70
2023/04/10 14:13:23;;;;;;;0.68;0.20;;;19.80;34.40;;;;;;4865722;28;87787;-70
2023/04/10 14:15:50;;;;;;;0.40;0.10;;;19.80;33.60;;;;;;4865318;28;87681;-72
2023/04/10 14:18:17;;;;;;;0.93;0.20;;;19.90;34.00;;;;;;4872827;28;87703;-72
2023/04/10 14:20:43;;;;;;;0.50;0.20;;;19.90;36.60;;;;;;4868882;28;87466;-72
2023/04/10 14:23:15;;;;;;;0.82;0.20;;;19.90;34.90;;;;;;4863558;28;87012;-71
2023/04/10 14:25:41;;;;;;;2.38;0.38;;;19.80;35.80;;;;;;4865882;28;88258;-72
2023/04/10 14:28:07;;;;;;;0.88;0.22;;;19.70;37.10;;;;;;4865488;28;87269;-72
2023/04/10 14:30:33;;;;;;;0.60;0.22;;;19.70;37.60;;;;;;4865355;28;88559;-72
2023/04/10 14:32:59;;;;;;;2.47;0.20;;;19.70;38.20;;;;;;4870136;28;87420;-72
2023/04/10 14:35:24;;;;;;;0.60;0.10;;;19.80;37.20;;;;;;4871929;28;87475;-71
2023/04/10 14:37:50;;;;;;;1.05;0.10;;;19.80;36.30;;;;;;4877175;28;87905;-72
2023/04/10 14:40:16;;;;;;;1.23;0.22;;;19.80;37.00;;;;;;4874392;28;87599;-72
2023/04/10 14:42:41;;;;;;;0.88;0.30;;;19.70;37.40;;;;;;4869225;28;88091;-71
2023/04/10 14:45:08;;;;;;;1.38;0.22;;;19.70;38.70;;;;;;4875316;28;87923;-71
2023/04/10 14:47:35;;;;;;;0.85;0.13;;;19.70;39.50;;;;;;4873125;28;88519;-72
2023/04/10 14:50:00;;;;;;;0.93;0.20;;;19.70;35.80;;;;;;4878678;28;87632;-72
2023/04/10 14:52:26;;;;;;;2.75;0.40;;;19.70;36.50;;;;;;4880010;28;87709;-71
2023/04/10 14:54:52;;;;;;;1.55;0.30;;;19.70;35.10;;;;;;4884282;28;90342;-72
2023/04/10 14:57:17;;;;;;;2.50;0.75;;;19.70;36.50;;;;;;4889222;28;89671;-71
2023/04/10 14:59:43;;;;;;;1.98;0.30;;;19.70;37.60;;;;;;4884233;28;87874;-71
2023/04/10 15:02:09;;;;;;;1.50;0.57;;;19.70;38.00;;;;;;4886807;28;87147;-72
2023/04/10 15:04:35;;;;;;;1.73;0.50;;;19.50;38.80;;;;;;4882348;28;88397;-71
2023/04/10 15:07:00;;;;;;;1.20;0.25;;;19.70;38.60;;;;;;4879961;28;87974;-72
2023/04/10 15:09:26;;;;;;;2.03;0.22;;;19.70;38.90;;;;;;4875970;28;87142;-72
2023/04/10 15:11:54;;;;;;;1.23;0.40;;;19.60;38.90;;;;;;4877803;28;86575;-72
2023/04/10 15:14:19;;;;;;;3.15;0.50;;;19.70;39.00;;;;;;4878466;28;88626;-71
2023/04/10 15:16:46;;;;;;;2.58;0.22;;;19.70;39.10;;;;;;4878880;28;87858;-72
2023/04/10 15:19:11;;;;;;;1.42;0.80;;;19.70;38.90;;;;;;4877060;28;88078;-71
2023/04/10 15:21:37;;;;;;;1.10;0.30;;;19.80;38.20;;;;;;4870517;28;87544;-73
2023/04/10 15:24:03;;;;;;;1.10;0.32;;;19.70;39.30;;;;;;4852796;28;88850;-72
2023/04/10 15:26:29;;;;;;;1.00;0.22;;;19.70;39.40;;;;;;4879261;28;88494;-73
2023/04/10 15:28:54;;;;;;;1.15;0.30;;;19.70;40.90;;;;;;4879434;28;89236;-73
2023/04/10 15:31:21;;;;;;;2.63;0.43;;;19.60;40.20;;;;;;4897504;28;89029;-73
2023/04/10 15:33:47;;;;;;;2.85;0.80;;;19.70;40.10;;;;;;4880405;28;87451;-72
2023/04/10 15:36:12;;;;;;;3.08;0.45;;;19.70;39.60;;;;;;4876708;28;87850;-72
2023/04/10 15:38:38;;;;;;;1.30;0.80;;;19.60;39.80;;;;;;4879620;28;87333;-73
2023/04/10 15:41:11;;;;;;;1.20;0.32;;;19.50;40.50;;;;;;4879175;28;87578;-73
2023/04/10 15:43:37;;;;;;;1.13;0.20;;;19.50;38.50;;;;;;4877521;28;90147;-72
2023/04/10 15:46:04;;;;;;;1.50;0.47;;;19.50;39.60;;;;;;4886869;28;88443;-73
2023/04/10 15:48:29;;;;;;;1.67;0.43;;;19.40;39.40;;;;;;4856847;28;87667;-73
2023/04/10 15:50:55;;;;;;;1.50;0.40;;;19.30;39.00;;;;;;4868959;28;87615;-73
2023/04/10 15:53:21;;;;;;;2.97;0.50;;;19.20;38.20;;;;;;4866106;28;87688;-72
2023/04/10 15:55:46;;;;;;;2.72;0.30;;;19.10;38.30;;;;;;4868092;28;87837;-72